Time;durP1;ratioP1;P1;durP2;ratioP2;P2;SDS_P1;SDS_P2;PMS_P1;PMS_P2;Temp;Humidity;BMP_temperature;BMP_pressure;BME280_temperature;BME280_humidity;BME280_pressure;Samples;Min_cycle;Max_cycle;Signal;HPM_P1;HPM_P2
2023/02/17 00:03:20;;;;;;;57.17;32.78;;;;;;;7.09;95.16;100753.19;10136962;29;20389;-82
2023/02/17 00:08:23;;;;;;;55.20;32.63;;;;;;;7.36;92.99;100745.31;10157104;29;20056;-81
2023/02/17 00:13:27;;;;;;;60.53;37.25;;;;;;;7.18;94.88;100715.22;10155466;29;20048;-81
2023/02/17 00:18:30;;;;;;;40.95;24.63;;;;;;;7.13;94.49;100701.31;10164083;29;20071;-82
2023/02/17 00:23:32;;;;;;;56.13;36.38;;;;;;;7.39;93.73;100706.84;10159061;29;20036;-80
2023/02/17 00:28:37;;;;;;;49.70;27.20;;;;;;;7.41;93.19;100704.94;10157944;29;20048;-81
2023/02/17 00:33:39;;;;;;;39.22;22.45;;;;;;;7.13;94.92;100693.28;10161828;29;20040;-81
2023/02/17 00:38:42;;;;;;;55.90;34.55;;;;;;;7.23;96.04;100704.25;10164405;29;20070;-82
2023/02/17 00:43:48;;;;;;;62.80;38.67;;;;;;;7.44;94.04;100705.59;10163346;29;20059;-82
2023/02/17 00:48:50;;;;;;;49.88;30.33;;;;;;;7.41;94.65;100697.75;10164742;29;20060;-83
2023/02/17 00:53:53;;;;;;;50.72;29.85;;;;;;;7.57;93.41;100692.31;10164263;29;20047;-82
2023/02/17 00:58:57;;;;;;;46.25;28.65;;;;;;;7.49;93.24;100703.50;10188602;29;20048;-82
2023/02/17 01:04:00;;;;;;;50.60;29.65;;;;;;;7.36;94.77;100720.41;10170689;29;20080;-82
2023/02/17 01:09:04;;;;;;;54.20;30.65;;;;;;;7.80;92.40;100695.31;10199969;28;20036;-80
2023/02/17 01:14:10;;;;;;;51.92;32.70;;;;;;;7.48;94.90;100682.19;10200318;28;20039;-78
2023/02/17 01:19:16;;;;;;;57.80;36.45;;;;;;;7.70;93.91;100687.88;10178688;29;20055;-81
2023/02/17 01:24:22;;;;;;;42.60;24.25;;;;;;;7.51;94.61;100684.66;10174792;29;20120;-81
2023/02/17 01:29:26;;;;;;;56.88;35.13;;;;;;;7.69;94.53;100683.50;10158164;29;20052;-81
2023/02/17 01:34:29;;;;;;;57.05;33.63;;;;;;;7.48;95.44;100674.16;10155023;29;20044;-81
2023/02/17 01:39:32;;;;;;;70.35;38.63;;;;;;;7.77;95.07;100674.97;10158453;29;20057;-81
2023/02/17 01:44:36;;;;;;;64.50;37.25;;;;;;;7.67;94.74;100665.84;10157270;29;20048;-82
2023/02/17 01:49:41;;;;;;;57.72;34.25;;;;;;;7.48;96.16;100644.75;10161263;29;20503;-80
2023/02/17 01:54:49;;;;;;;59.55;37.55;;;;;;;7.66;95.24;100651.63;10161134;29;20059;-82
2023/02/17 01:59:54;;;;;;;67.20;41.53;;;;;;;7.68;94.63;100647.03;10177640;29;20044;-82
2023/02/17 02:04:57;;;;;;;59.60;36.60;;;;;;;7.83;93.42;100634.47;10159230;29;20048;-81
2023/02/17 02:10:00;;;;;;;61.50;38.60;;;;;;;7.86;93.34;100620.03;10159277;29;20056;-82
2023/02/17 02:15:08;;;;;;;44.10;26.42;;;;;;;7.73;93.78;100619.97;10158089;29;20040;-81
2023/02/17 02:20:36;;;;;;;53.00;33.65;;;;;;;7.78;94.72;100614.31;10148856;29;20059;-83
2023/02/17 02:26:17;;;;;;;50.17;31.75;;;;;;;7.83;94.73;100601.50;10132415;29;20053;-83
2023/02/17 02:31:32;;;;;;;51.92;34.10;;;;;;;7.78;93.75;100590.25;10128459;29;20073;-82
2023/02/17 02:36:40;;;;;;;62.08;35.90;;;;;;;8.09;93.07;100603.31;10161808;29;20044;-82
2023/02/17 02:41:48;;;;;;;54.15;32.63;;;;;;;7.90;93.87;100598.34;10157584;29;20053;-81
2023/02/17 02:46:58;;;;;;;40.67;27.65;;;;;;;8.11;93.13;100593.34;10160321;29;20152;-82
2023/02/17 02:52:10;;;;;;;55.55;32.03;;;;;;;7.98;93.67;100596.94;10177679;29;20077;-80
2023/02/17 02:57:34;;;;;;;50.15;31.05;;;;;;;7.92;93.86;100592.88;10151366;29;20083;-81
2023/02/17 03:02:51;;;;;;;40.13;26.92;;;;;;;7.71;96.98;100593.34;10166679;29;20143;-82
2023/02/17 03:08:01;;;;;;;52.97;32.22;;;;;;;7.90;94.52;100590.31;10145817;29;20049;-81
2023/02/17 03:13:04;;;;;;;43.83;24.10;;;;;;;8.03;93.60;100579.63;10165952;29;20049;-82
2023/02/17 03:18:07;;;;;;;53.72;32.15;;;;;;;7.94;95.05;100557.03;10162135;29;20052;-82
2023/02/17 03:23:13;;;;;;;50.53;29.30;;;;;;;7.94;94.80;100546.34;10176770;29;20064;-82
2023/02/17 03:28:16;;;;;;;50.65;30.23;;;;;;;7.89;95.65;100521.72;10164140;29;20068;-81
2023/02/17 03:33:18;;;;;;;57.97;33.70;;;;;;;7.98;94.40;100528.28;10163517;29;20058;-81
2023/02/17 03:38:23;;;;;;;51.33;26.88;;;;;;;7.82;96.09;100547.19;10171933;29;20052;-81
2023/02/17 03:43:26;;;;;;;57.72;35.90;;;;;;;7.90;96.91;100544.00;10165771;29;20123;-83
2023/02/17 03:48:29;;;;;;;55.05;32.13;;;;;;;7.95;96.32;100525.78;10168573;29;20124;-82
2023/02/17 03:53:33;;;;;;;49.65;28.13;;;;;;;8.01;94.90;100524.50;10162761;29;20107;-82
2023/02/17 03:58:36;;;;;;;42.58;23.48;;;;;;;7.69;96.61;100517.72;10173092;29;20048;-82
2023/02/17 04:03:40;;;;;;;43.10;24.02;;;;;;;7.85;96.25;100528.25;10164459;29;20504;-81
2023/02/17 04:08:44;;;;;;;54.85;34.20;;;;;;;8.31;94.25;100532.25;10164676;29;20052;-81
2023/02/17 04:13:47;;;;;;;49.78;25.98;;;;;;;8.01;94.21;100520.03;10170360;29;20540;-80
2023/02/17 04:18:50;;;;;;;37.55;24.48;;;;;;;7.99;94.92;100511.25;10165525;29;20163;-82
2023/02/17 04:23:54;;;;;;;49.08;29.38;;;;;;;8.17;94.36;100534.09;10166051;29;20105;-81
2023/02/17 04:28:57;;;;;;;40.22;22.05;;;;;;;8.27;92.81;100539.66;10166490;29;20095;-82
2023/02/17 04:34:00;;;;;;;38.25;22.48;;;;;;;8.11;92.98;100539.84;10165009;29;20044;-80
2023/02/17 04:39:04;;;;;;;32.75;20.20;;;;;;;7.99;93.54;100531.81;10167689;29;20044;-81
2023/02/17 04:44:07;;;;;;;35.53;22.52;;;;;;;8.17;91.69;100528.75;10158832;29;20045;-80
2023/02/17 04:49:10;;;;;;;38.92;23.25;;;;;;;8.12;91.91;100522.84;10160454;29;20047;-80
2023/02/17 04:54:14;;;;;;;41.60;26.33;;;;;;;8.28;90.29;100514.63;10194143;23;20044;-82
2023/02/17 04:59:17;;;;;;;42.30;26.65;;;;;;;8.25;90.55;100520.16;10187309;29;20636;-83
2023/02/17 05:04:19;;;;;;;36.97;21.67;;;;;;;8.40;88.91;100486.13;10184616;29;20036;-82
2023/02/17 05:09:24;;;;;;;45.30;26.98;;;;;;;8.25;90.05;100489.88;10184624;29;20044;-82
2023/02/17 05:14:27;;;;;;;49.45;31.05;;;;;;;8.49;87.91;100484.66;10187232;29;20043;-82
2023/02/17 05:19:29;;;;;;;39.95;21.60;;;;;;;8.14;89.58;100491.47;10186739;29;20044;-82
2023/02/17 05:24:34;;;;;;;42.70;26.27;;;;;;;8.69;86.66;100480.53;10171758;29;20045;-83
2023/02/17 05:29:38;;;;;;;39.08;23.25;;;;;;;8.32;88.12;100489.34;10180187;29;20072;-81
2023/02/17 05:34:41;;;;;;;39.05;24.90;;;;;;;8.33;87.57;100499.06;10210339;29;20052;-81
2023/02/17 05:39:45;;;;;;;45.88;29.20;;;;;;;8.58;86.76;100479.50;10145713;29;20052;-81
2023/02/17 05:44:48;;;;;;;44.88;27.30;;;;;;;8.53;86.93;100495.03;10136732;29;20072;-82
2023/02/17 05:49:51;;;;;;;47.40;28.77;;;;;;;8.79;85.59;100476.25;10140376;29;20044;-82
2023/02/17 05:54:55;;;;;;;38.28;25.48;;;;;;;8.45;87.13;100469.72;10165940;29;20044;-81
2023/02/17 05:59:58;;;;;;;31.52;18.95;;;;;;;8.20;87.09;100465.25;10164520;29;20056;-82
2023/02/17 06:05:01;;;;;;;28.50;18.85;;;;;;;8.41;86.14;100463.75;10178436;29;20047;-82
2023/02/17 06:10:07;;;;;;;32.53;22.98;;;;;;;8.29;86.90;100440.53;10177929;29;20056;-80
2023/02/17 06:15:10;;;;;;;31.67;20.52;;;;;;;8.47;85.56;100452.63;10179678;29;20063;-81
2023/02/17 06:20:13;;;;;;;39.20;24.33;;;;;;;8.46;85.47;100450.91;10194864;29;20514;-80
2023/02/17 06:25:18;;;;;;;42.95;25.92;;;;;;;8.58;85.62;100433.13;10200583;29;20048;-82
2023/02/17 06:30:22;;;;;;;46.55;28.98;;;;;;;8.83;84.87;100442.91;10184248;29;20036;-79
2023/02/17 06:35:25;;;;;;;37.13;20.05;;;;;;;8.64;84.86;100445.19;10180483;29;20044;-80
2023/02/17 06:40:29;;;;;;;35.58;22.27;;;;;;;8.52;84.99;100465.69;10165473;29;20052;-80
2023/02/17 06:45:32;;;;;;;32.63;20.92;;;;;;;8.54;85.28;100463.75;10166114;29;20045;-80
2023/02/17 06:50:35;;;;;;;40.63;28.08;;;;;;;8.69;84.95;100453.75;10184402;29;20068;-79
2023/02/17 06:55:39;;;;;;;30.40;20.25;;;;;;;8.47;85.56;100467.84;10165861;29;20500;-80
2023/02/17 07:00:42;;;;;;;39.47;25.10;;;;;;;8.64;84.70;100454.13;10166287;29;20044;-81
2023/02/17 07:05:45;;;;;;;30.98;20.58;;;;;;;8.36;85.03;100442.66;10153016;29;20140;-80
2023/02/17 07:10:49;;;;;;;22.85;14.80;;;;;;;8.51;83.97;100443.41;10160972;29;20045;-81
2023/02/17 07:15:52;;;;;;;26.27;15.55;;;;;;;8.53;84.72;100470.06;10159390;29;20069;-81
2023/02/17 07:20:55;;;;;;;38.75;22.02;;;;;;;8.80;83.68;100427.06;10156469;29;20423;-81
2023/02/17 07:26:03;;;;;;;22.85;14.50;;;;;;;8.54;84.12;100440.53;10178644;29;20076;-80
2023/02/17 07:31:07;;;;;;;23.98;14.80;;;;;;;8.52;84.24;100445.13;10173373;29;20049;-79
2023/02/17 07:36:12;;;;;;;31.17;19.98;;;;;;;8.80;83.00;100419.91;10183798;29;20123;-79
2023/02/17 07:41:18;;;;;;;21.20;14.85;;;;;;;8.71;83.23;100414.34;10187309;29;20044;-79
2023/02/17 07:46:22;;;;;;;27.38;18.42;;;;;;;8.72;83.38;100426.75;10167902;29;20048;-79
2023/02/17 07:51:25;;;;;;;27.05;16.45;;;;;;;8.67;84.16;100428.94;10171863;29;20036;-79
2023/02/17 07:56:32;;;;;;;29.38;19.67;;;;;;;8.53;85.71;100448.66;10171237;29;20122;-79
2023/02/17 08:01:35;;;;;;;34.88;20.27;;;;;;;8.57;85.94;100426.06;10177054;29;20058;-80
2023/02/17 08:06:39;;;;;;;30.42;19.73;;;;;;;8.54;86.32;100427.13;10180301;29;20037;-80
2023/02/17 08:17:05;;;;;;;25.80;16.97;;;;;;;8.52;87.14;100426.38;10204928;29;20048;-79
2023/02/17 08:22:07;;;;;;;28.02;16.33;;;;;;;8.82;86.10;100404.56;10211718;29;20300;-79
2023/02/17 08:27:12;;;;;;;20.98;13.73;;;;;;;8.41;88.98;100407.53;10200560;29;20044;-80
2023/02/17 08:32:16;;;;;;;29.38;18.00;;;;;;;8.60;89.16;100405.25;10220520;29;20055;-80
2023/02/17 08:37:19;;;;;;;28.52;19.73;;;;;;;8.38;90.93;100381.81;10219642;29;20090;-78
2023/02/17 08:42:25;;;;;;;24.42;15.32;;;;;;;8.49;91.21;100383.75;10182734;29;20040;-79
2023/02/17 08:47:27;;;;;;;25.90;14.95;;;;;;;8.44;91.70;100375.19;10210559;29;20055;-80
2023/02/17 08:52:30;;;;;;;26.67;16.75;;;;;;;8.47;91.83;100388.38;10169664;29;20070;-81
2023/02/17 08:57:34;;;;;;;30.50;18.90;;;;;;;8.56;91.44;100357.41;10167936;29;20116;-81
2023/02/17 09:02:37;;;;;;;27.98;20.45;;;;;;;8.34;92.12;100380.34;10174913;29;20048;-80
2023/02/17 09:07:41;;;;;;;31.70;17.17;;;;;;;8.33;92.66;100380.44;10165297;29;20075;-80
2023/02/17 09:12:45;;;;;;;26.48;18.35;;;;;;;8.54;91.52;100391.47;10162852;29;20063;-81
2023/02/17 09:17:48;;;;;;;35.83;21.25;;;;;;;8.59;91.02;100424.97;10170781;29;20055;-80
2023/02/17 09:22:51;;;;;;;28.25;18.38;;;;;;;8.73;90.73;100388.31;10170794;29;20052;-81
2023/02/17 09:27:55;;;;;;;34.72;23.27;;;;;;;8.72;90.92;100389.25;10176147;29;20059;-81
2023/02/17 09:33:01;;;;;;;39.40;22.90;;;;;;;8.50;92.54;100414.06;10142958;29;20060;-80
2023/02/17 09:38:04;;;;;;;32.67;20.45;;;;;;;8.75;91.38;100423.84;10134423;29;20601;-80
2023/02/17 09:43:13;;;;;;;38.05;22.85;;;;;;;8.84;90.33;100399.09;10147759;29;20063;-80
2023/02/17 09:48:20;;;;;;;34.47;21.80;;;;;;;8.72;91.29;100441.03;10136617;29;20142;-79
2023/02/17 09:53:31;;;;;;;38.70;21.38;;;;;;;8.81;90.83;100456.41;10157233;29;20059;-79
2023/02/17 09:58:40;;;;;;;42.55;24.15;;;;;;;8.92;90.52;100417.28;10148653;29;20166;-80
2023/02/17 10:03:46;;;;;;;37.38;21.67;;;;;;;8.96;89.67;100440.19;10159508;29;20365;-80
2023/02/17 10:08:53;;;;;;;45.13;30.98;;;;;;;9.00;89.33;100425.63;10160390;29;20054;-80
2023/02/17 10:14:03;;;;;;;35.58;21.92;;;;;;;9.09;88.19;100450.88;10173635;29;20104;-80
2023/02/17 10:19:12;;;;;;;33.47;22.45;;;;;;;8.96;88.83;100416.06;10129239;29;21184;-81
2023/02/17 10:24:15;;;;;;;41.85;25.02;;;;;;;9.36;86.95;100395.19;10163420;29;20051;-81
2023/02/17 10:29:34;;;;;;;31.92;17.50;;;;;;;9.17;86.52;100368.94;10159997;29;20056;-79
2023/02/17 10:34:42;;;;;;;30.95;21.40;;;;;;;9.47;84.34;100389.03;10143775;29;20063;-81
2023/02/17 10:39:48;;;;;;;28.45;18.88;;;;;;;9.43;84.06;100388.38;10130321;29;20044;-79
2023/02/17 10:44:56;;;;;;;31.80;22.60;;;;;;;9.36;83.87;100399.72;10133515;29;20128;-79
2023/02/17 10:50:00;;;;;;;20.45;11.82;;;;;;;9.64;81.96;100382.34;10123313;29;20055;-79
2023/02/17 10:55:06;;;;;;;22.70;15.77;;;;;;;9.82;80.82;100356.78;10129882;29;20127;-80
2023/02/17 11:00:26;;;;;;;22.35;16.13;;;;;;;10.09;79.45;100331.44;10128204;29;20570;-81
2023/02/17 11:05:31;;;;;;;22.23;15.80;;;;;;;9.81;79.55;100348.84;10140655;29;20047;-78
2023/02/17 11:10:37;;;;;;;19.55;14.90;;;;;;;10.14;78.55;100345.34;10164485;29;20124;-79
2023/02/17 11:15:46;;;;;;;18.48;12.68;;;;;;;10.33;76.94;100337.53;10156698;29;20146;-79
2023/02/17 11:20:49;;;;;;;18.85;12.50;;;;;;;10.33;76.45;100332.16;10163597;29;20059;-79
2023/02/17 11:25:58;;;;;;;15.40;10.55;;;;;;;10.55;76.03;100325.06;10133304;29;20134;-78
2023/02/17 11:31:03;;;;;;;13.88;9.07;;;;;;;10.71;75.00;100330.03;10128971;29;20493;-79
2023/02/17 11:36:12;;;;;;;19.25;13.05;;;;;;;10.75;74.55;100328.78;10126548;29;20056;-79
2023/02/17 11:41:16;;;;;;;10.68;9.57;;;;;;;10.56;74.75;100313.34;10125125;29;20123;-79
2023/02/17 11:46:27;;;;;;;12.73;9.30;;;;;;;10.50;73.84;100298.56;10133589;29;20578;-79
2023/02/17 11:51:43;;;;;;;9.55;7.30;;;;;;;10.68;73.26;100317.69;10131560;29;20079;-79
2023/02/17 11:56:56;;;;;;;14.23;12.00;;;;;;;10.90;72.39;100272.91;10138993;29;20056;-78
2023/02/17 12:02:08;;;;;;;;;;;;;;;10.87;72.40;100252.53;10128449;29;20325;-79
2023/02/17 12:07:31;;;;;;;16.13;9.40;;;;;;;10.59;72.48;100313.94;10139334;29;19975;-79
2023/02/17 12:12:51;;;;;;;11.50;7.70;;;;;;;10.68;73.06;100288.13;10129861;29;20084;-79
2023/02/17 12:18:06;;;;;;;12.77;8.70;;;;;;;11.02;71.99;100309.50;10138188;29;20058;-79
2023/02/17 12:23:25;;;;;;;12.75;7.38;;;;;;;10.51;73.56;100339.72;10157651;29;20116;-78
2023/02/17 12:28:53;;;;;;;9.48;7.53;;;;;;;10.62;73.43;100294.03;10149947;28;20056;-80
2023/02/17 12:34:03;;;;;;;12.50;8.93;;;;;;;10.99;73.01;100283.72;10138834;29;20559;-79
2023/02/17 12:39:19;;;;;;;10.27;8.30;;;;;;;10.84;72.45;100302.00;10145865;29;20585;-79
2023/02/17 12:44:26;;;;;;;13.30;10.35;;;;;;;10.66;73.66;100313.44;10143853;29;20056;-79
2023/02/17 12:49:37;;;;;;;7.70;6.82;;;;;;;10.55;73.19;100330.41;10147681;29;20183;-79
2023/02/17 12:54:45;;;;;;;10.38;8.93;;;;;;;10.67;73.87;100317.81;10163999;28;20059;-79
2023/02/17 12:59:49;;;;;;;8.25;5.75;;;;;;;10.49;74.36;100306.75;10134907;29;20400;-79
2023/02/17 13:04:56;;;;;;;9.20;6.25;;;;;;;10.42;74.58;100303.69;10121925;29;21362;-79
2023/02/17 13:09:59;;;;;;;8.00;6.05;;;;;;;10.64;74.34;100320.75;10143448;29;20202;-79
2023/02/17 13:15:04;;;;;;;8.23;5.38;;;;;;;10.58;74.51;100314.91;10134765;29;20126;-79
2023/02/17 13:20:41;;;;;;;8.15;6.40;;;;;;;10.42;75.22;100318.97;10127440;29;20069;-79
2023/02/17 13:25:44;;;;;;;8.93;7.68;;;;;;;10.28;75.59;100345.09;10112768;29;20044;-79
2023/02/17 13:30:50;;;;;;;6.25;5.22;;;;;;;10.56;75.26;100353.63;10154164;29;20047;-78
2023/02/17 13:35:56;;;;;;;8.25;6.05;;;;;;;10.16;77.85;100360.38;10166842;29;20502;-79
2023/02/17 13:41:00;;;;;;;12.57;9.43;;;;;;;10.01;80.15;100382.19;10164068;29;20136;-79
2023/02/17 13:46:06;;;;;;;10.23;8.55;;;;;;;9.97;83.11;100389.63;10191566;28;20040;-78
2023/02/17 13:51:25;;;;;;;10.68;8.40;;;;;;;9.38;88.23;100408.47;10177119;29;20047;-79
2023/02/17 13:56:29;;;;;;;11.73;9.85;;;;;;;9.65;88.27;100397.47;10142871;29;20436;-77
2023/02/17 14:01:35;;;;;;;16.60;11.00;;;;;;;9.44;89.92;100402.66;10114622;29;20056;-79
2023/02/17 14:06:40;;;;;;;13.38;8.52;;;;;;;9.37;91.46;100404.94;10142529;29;20111;-78
2023/02/17 14:11:43;;;;;;;15.20;8.70;;;;;;;9.48;92.68;100399.63;10161493;29;20107;-79
2023/02/17 14:16:58;;;;;;;8.38;6.25;;;;;;;9.45;92.43;100382.91;10149161;29;20152;-79
2023/02/17 14:22:04;;;;;;;14.95;10.55;;;;;;;9.19;93.61;100401.00;10127940;29;20056;-80
2023/02/17 14:27:08;;;;;;;9.52;7.50;;;;;;;8.94;94.38;100418.88;10155018;29;20060;-79
2023/02/17 14:32:29;;;;;;;12.95;8.90;;;;;;;9.23;93.33;100399.78;10158673;29;20078;-79
2023/02/17 14:37:35;;;;;;;14.77;10.82;;;;;;;9.50;91.11;100413.78;10189837;29;20040;-79
2023/02/17 14:42:38;;;;;;;8.57;6.07;;;;;;;9.22;91.54;100392.72;10178829;29;20060;-79
2023/02/17 14:47:41;;;;;;;11.68;8.25;;;;;;;9.32;91.37;100415.16;10152095;29;20111;-79
2023/02/17 14:52:47;;;;;;;10.93;8.50;;;;;;;9.40;90.93;100420.78;10143391;29;20083;-79
2023/02/17 14:57:50;;;;;;;10.05;7.10;;;;;;;9.23;91.86;100426.56;10140767;29;20328;-79
2023/02/17 15:02:52;;;;;;;10.98;8.30;;;;;;;9.23;91.84;100442.66;10150350;29;20079;-79
2023/02/17 15:08:00;;;;;;;12.68;8.93;;;;;;;9.20;89.62;100419.63;10140994;29;20130;-79
2023/02/17 15:13:03;;;;;;;8.68;5.80;;;;;;;9.34;87.75;100450.75;10153220;29;20052;-79
2023/02/17 15:18:06;;;;;;;8.90;7.15;;;;;;;9.56;86.57;100441.94;10167243;29;20044;-79
2023/02/17 15:23:13;;;;;;;10.52;7.22;;;;;;;9.51;86.78;100449.47;10142447;29;20076;-79
2023/02/17 15:28:18;;;;;;;12.63;8.57;;;;;;;9.45;86.85;100453.47;10141922;29;21309;-80
2023/02/17 15:33:22;;;;;;;10.70;7.95;;;;;;;9.49;86.54;100451.44;10149248;29;20063;-80
2023/02/17 15:38:27;;;;;;;11.10;7.63;;;;;;;9.55;86.42;100460.84;10138956;29;20052;-80
2023/02/17 15:43:35;;;;;;;10.63;7.57;;;;;;;9.64;85.43;100462.81;10139258;29;20055;-80
2023/02/17 15:48:39;;;;;;;9.13;6.85;;;;;;;9.63;85.85;100477.22;10134493;29;20055;-80
2023/02/17 15:53:43;;;;;;;7.60;6.03;;;;;;;8.99;88.66;100458.72;10139961;29;20119;-79
2023/02/17 15:58:47;;;;;;;9.85;6.55;;;;;;;9.37;86.78;100463.91;10136027;29;20055;-79
2023/02/17 16:03:50;;;;;;;7.55;5.47;;;;;;;9.40;85.60;100471.72;10129575;29;20531;-80
2023/02/17 16:08:57;;;;;;;9.13;4.88;;;;;;;9.37;85.29;100466.59;10124372;29;20589;-79
2023/02/17 16:14:01;;;;;;;9.93;6.28;;;;;;;9.62;86.05;100488.91;10124941;29;20107;-79
2023/02/17 16:19:03;;;;;;;9.15;6.40;;;;;;;9.63;85.38;100488.78;10130990;29;20056;-79
2023/02/17 16:24:08;;;;;;;10.32;6.65;;;;;;;9.24;87.03;100501.53;10120426;29;20055;-79
2023/02/17 16:29:15;;;;;;;10.13;6.93;;;;;;;8.99;88.17;100504.25;10139425;29;20131;-80
2023/02/17 16:34:19;;;;;;;11.18;7.75;;;;;;;9.21;87.29;100503.56;10172297;29;20063;-80
2023/02/17 16:39:24;;;;;;;12.13;7.88;;;;;;;9.00;89.91;100539.00;10162511;29;20067;-80
2023/02/17 16:44:26;;;;;;;13.18;7.82;;;;;;;8.78;90.20;100538.84;10156317;29;20044;-80
2023/02/17 16:49:34;;;;;;;14.65;8.40;;;;;;;9.19;87.90;100543.03;10160496;29;20048;-81
2023/02/17 16:54:39;;;;;;;11.55;9.32;;;;;;;9.66;84.70;100558.28;10126045;29;20076;-80
2023/02/17 16:59:42;;;;;;;13.32;8.25;;;;;;;9.51;84.02;100551.38;10129576;29;20135;-81
2023/02/17 17:04:44;;;;;;;15.70;7.47;;;;;;;9.46;83.83;100567.81;10159376;29;20475;-80
2023/02/17 17:09:49;;;;;;;12.93;7.28;;;;;;;9.42;82.88;100595.81;10157979;29;20174;-80
2023/02/17 17:15:12;;;;;;;11.65;9.10;;;;;;;9.71;82.17;100571.38;10170767;29;20082;-80
2023/02/17 17:20:20;;;;;;;8.70;6.57;;;;;;;9.37;82.74;100589.06;10178396;29;20056;-80
2023/02/17 17:25:24;;;;;;;12.25;7.10;;;;;;;9.34;82.18;100600.03;10153870;29;20083;-79
2023/02/17 17:30:31;;;;;;;11.20;7.30;;;;;;;9.70;80.89;100601.84;10157020;29;20048;-81
2023/02/17 17:35:34;;;;;;;14.48;7.40;;;;;;;9.60;80.35;100582.00;10152153;29;20053;-80
2023/02/17 17:40:47;;;;;;;8.15;5.25;;;;;;;9.44;79.19;100580.47;10165401;29;20054;-80
2023/02/17 17:45:51;;;;;;;10.25;6.65;;;;;;;9.89;77.73;100579.88;10150983;29;20045;-80
2023/02/17 17:50:54;;;;;;;13.80;6.88;;;;;;;9.61;77.75;100594.47;10160677;29;20050;-80
2023/02/17 17:55:58;;;;;;;8.25;4.78;;;;;;;9.84;77.16;100617.75;10138911;29;20052;-80
2023/02/17 18:01:01;;;;;;;9.60;5.63;;;;;;;9.78;77.47;100601.28;10128781;29;20547;-80
2023/02/17 18:06:06;;;;;;;14.68;6.45;;;;;;;9.79;77.82;100628.00;10125186;29;20135;-80
2023/02/17 18:11:13;;;;;;;9.88;5.78;;;;;;;9.77;77.43;100640.66;10130871;29;20067;-80
2023/02/17 18:16:18;;;;;;;12.88;7.47;;;;;;;9.71;77.42;100662.59;10110226;29;20120;-80
2023/02/17 18:21:21;;;;;;;12.07;8.13;;;;;;;10.39;76.69;100698.69;10109177;29;20095;-80
2023/02/17 18:26:25;;;;;;;20.80;4.28;;;;;;;9.30;81.35;100709.31;10125662;29;20171;-81
2023/02/17 18:31:28;;;;;;;10.65;4.82;;;;;;;8.61;87.93;100724.78;10122693;29;20052;-82
2023/02/17 18:36:31;;;;;;;11.00;5.25;;;;;;;7.81;97.22;100731.81;10160377;29;20054;-84
2023/02/17 18:41:36;;;;;;;10.02;5.30;;;;;;;7.73;94.45;100762.59;10167200;29;20490;-83
2023/02/17 18:46:39;;;;;;;9.25;5.45;;;;;;;7.61;93.16;100757.13;10162239;29;20095;-82
2023/02/17 18:51:42;;;;;;;14.70;5.03;;;;;;;7.90;91.01;100777.56;10171644;29;20095;-83
2023/02/17 18:56:46;;;;;;;12.80;5.85;;;;;;;7.79;90.86;100779.16;10166820;29;20150;-83
2023/02/17 19:01:49;;;;;;;10.05;5.82;;;;;;;7.99;91.24;100792.16;10153775;29;20088;-82
2023/02/17 19:06:52;;;;;;;23.15;5.97;;;;;;;7.43;92.19;100793.88;10185038;29;20045;-82
2023/02/17 19:11:56;;;;;;;11.85;4.57;;;;;;;8.04;88.61;100803.44;10167643;29;20052;-82
2023/02/17 19:16:59;;;;;;;13.85;4.47;;;;;;;7.89;87.06;100802.56;10169198;29;20056;-82
2023/02/17 19:22:06;;;;;;;11.45;4.00;;;;;;;8.03;84.83;100814.22;10171684;29;20047;-82
2023/02/17 19:27:11;;;;;;;13.70;3.05;;;;;;;7.83;82.43;100813.66;10192789;29;20051;-82
2023/02/17 19:32:14;;;;;;;14.35;2.28;;;;;;;7.93;80.48;100814.81;10160338;29;20111;-82
2023/02/17 19:37:17;;;;;;;10.25;2.75;;;;;;;7.91;79.46;100814.03;10141676;29;20044;-81
2023/02/17 19:42:21;;;;;;;12.35;2.83;;;;;;;7.50;79.55;100808.59;10172252;29;20043;-81
2023/02/17 19:47:24;;;;;;;13.25;2.45;;;;;;;7.66;79.20;100817.41;10170530;28;20543;-81
2023/02/17 19:52:27;;;;;;;9.15;2.83;;;;;;;7.49;78.81;100834.47;10134116;29;20056;-81
2023/02/17 19:57:31;;;;;;;12.75;2.40;;;;;;;7.54;78.83;100827.97;10124813;29;20423;-82
2023/02/17 20:02:34;;;;;;;16.10;3.40;;;;;;;7.84;78.91;100838.59;10117128;29;20133;-82
2023/02/17 20:07:37;;;;;;;13.50;3.05;;;;;;;7.59;78.00;100842.78;10144748;29;20096;-83
2023/02/17 20:12:41;;;;;;;6.97;2.38;;;;;;;7.36;76.24;100851.34;10139462;29;20135;-82
2023/02/17 20:17:45;;;;;;;14.88;3.28;;;;;;;7.27;75.73;100845.59;10138883;29;21256;-82
2023/02/17 20:22:47;;;;;;;16.10;2.80;;;;;;;7.41;74.50;100862.63;10121983;29;20480;-83
2023/02/17 20:27:53;;;;;;;12.10;2.40;;;;;;;7.62;74.04;100861.31;10143825;29;20102;-81
2023/02/17 20:32:55;;;;;;;14.75;2.45;;;;;;;7.30;74.42;100865.94;10171763;29;20124;-81
2023/02/17 20:37:58;;;;;;;9.15;2.58;;;;;;;7.39;70.42;100869.88;10152637;29;20040;-83
2023/02/17 20:43:05;;;;;;;12.65;2.65;;;;;;;7.28;70.88;100863.34;10151206;29;20052;-82
2023/02/17 20:48:08;;;;;;;7.05;1.95;;;;;;;6.96;68.66;100875.94;10125420;29;20503;-81
2023/02/17 20:53:12;;;;;;;7.00;1.65;;;;;;;7.32;67.88;100881.88;10153638;29;20095;-80
2023/02/17 20:58:16;;;;;;;16.00;1.95;;;;;;;6.91;67.54;100891.38;10179594;29;20057;-82
2023/02/17 21:03:19;;;;;;;12.05;1.70;;;;;;;7.36;68.54;100886.09;10175739;29;20056;-81
2023/02/17 21:08:21;;;;;;;9.65;1.38;;;;;;;7.17;66.96;100879.16;10167037;29;20080;-82
2023/02/17 21:13:26;;;;;;;8.70;1.63;;;;;;;6.98;66.75;100881.19;10189677;29;20133;-81
2023/02/17 21:18:31;;;;;;;7.75;2.08;;;;;;;7.28;67.40;100894.56;10166536;29;20071;-81
2023/02/17 21:23:34;;;;;;;12.40;2.33;;;;;;;7.40;69.38;100899.16;10169367;29;20530;-80
2023/02/17 21:28:39;;;;;;;11.73;2.25;;;;;;;7.05;71.76;100883.41;10161676;29;20652;-80
2023/02/17 21:33:42;;;;;;;11.45;2.05;;;;;;;7.19;70.24;100887.97;10159065;29;20131;-81
2023/02/17 21:38:45;;;;;;;8.95;1.98;;;;;;;6.93;67.70;100901.97;10187887;29;21358;-81
2023/02/17 21:49:10;;;;;;;8.85;1.42;;;;;;;7.28;66.34;100921.28;10181463;29;20048;-80
2023/02/17 21:54:13;;;;;;;8.93;1.67;;;;;;;7.26;67.04;100912.50;10176561;29;20122;-81
2023/02/17 21:59:17;;;;;;;10.07;2.13;;;;;;;7.07;65.92;100915.38;10152848;29;20171;-81
2023/02/17 22:04:20;;;;;;;9.45;2.15;;;;;;;6.91;64.45;100907.41;10159209;29;20075;-81
2023/02/17 22:09:23;;;;;;;7.43;1.45;;;;;;;7.15;64.54;100929.16;10151680;29;20040;-80
2023/02/17 22:14:29;;;;;;;10.60;1.75;;;;;;;7.19;64.05;100935.19;10181393;23;20045;-81
2023/02/17 22:19:32;;;;;;;11.18;1.50;;;;;;;7.09;63.96;100934.00;10186581;29;20475;-80
2023/02/17 22:24:34;;;;;;;5.45;1.63;;;;;;;7.59;63.37;100928.34;10191135;29;20039;-81
2023/02/17 22:29:39;;;;;;;6.97;1.48;;;;;;;7.32;63.93;100924.63;10188370;29;20044;-79
2023/02/17 22:34:42;;;;;;;6.38;1.48;;;;;;;7.44;64.49;100930.13;10189256;29;20055;-80
2023/02/17 22:39:45;;;;;;;8.63;1.35;;;;;;;7.32;63.61;100930.84;10186017;29;20040;-79
2023/02/17 22:44:49;;;;;;;12.45;1.95;;;;;;;7.55;63.77;100923.28;10181884;29;20048;-81
2023/02/17 22:49:52;;;;;;;11.00;1.40;;;;;;;7.15;63.58;100902.44;10175599;29;20044;-82
2023/02/17 22:54:55;;;;;;;7.05;0.95;;;;;;;7.32;63.80;100911.25;10175998;29;20052;-80
2023/02/17 22:59:59;;;;;;;10.63;1.48;;;;;;;7.35;64.07;100916.44;10177355;29;20106;-81
2023/02/17 23:05:02;;;;;;;4.07;1.77;;;;;;;7.35;64.08;100913.75;10177362;29;20079;-82
2023/02/17 23:10:07;;;;;;;9.85;1.33;;;;;;;7.12;64.45;100915.13;10180349;29;20055;-82
2023/02/17 23:15:12;;;;;;;11.48;1.83;;;;;;;7.16;65.26;100917.53;10176773;29;20070;-81
2023/02/17 23:20:15;;;;;;;6.15;1.75;;;;;;;7.41;64.30;100911.59;10172611;29;20483;-82
2023/02/17 23:25:18;;;;;;;13.55;2.45;;;;;;;7.46;64.28;100900.63;10178620;29;20044;-81
2023/02/17 23:30:23;;;;;;;11.60;1.88;;;;;;;7.49;63.51;100917.34;10175188;29;20044;-81